Time;durP1;ratioP1;P1;durP2;ratioP2;P2;SDS_P1;SDS_P2;PMS_P1;PMS_P2;Temp;Humidity;BMP_temperature;BMP_pressure;BME280_temperature;BME280_humidity;BME280_pressure;Samples;Min_cycle;Max_cycle;Signal;HPM_P1;HPM_P2
2023/06/27 00:01:48;;;;;;;13.33;6.20;;;;;;;19.73;62.84;99516.44;4250856;28;20444;-71
2023/06/27 00:04:15;;;;;;;11.43;6.43;;;;;;;19.91;59.32;99515.59;4257906;28;20228;-72
2023/06/27 00:06:42;;;;;;;11.87;6.03;;;;;;;19.97;58.34;99509.19;4255005;28;20258;-73
2023/06/27 00:09:15;;;;;;;10.57;5.20;;;;;;;20.08;56.75;99474.59;4245482;28;20344;-75
2023/06/27 00:11:41;;;;;;;10.53;5.80;;;;;;;20.01;58.15;99479.34;4278562;28;20235;-74
2023/06/27 00:14:13;;;;;;;12.80;6.63;;;;;;;19.97;58.09;99498.19;4308862;28;20615;-75
2023/06/27 00:16:41;;;;;;;11.87;5.70;;;;;;;20.10;56.42;99497.19;4266888;28;20340;-74
2023/06/27 00:19:08;;;;;;;12.60;5.60;;;;;;;20.06;56.09;99485.81;4243886;28;20270;-71
2023/06/27 00:21:36;;;;;;;8.90;5.17;;;;;;;20.25;55.30;99493.97;4244410;28;20235;-75
2023/06/27 00:24:04;;;;;;;8.37;5.30;;;;;;;20.21;55.58;99498.28;4242186;28;20624;-75
2023/06/27 00:26:32;;;;;;;11.90;5.53;;;;;;;20.01;56.19;99480.19;4259500;28;20307;-73
2023/06/27 00:29:02;;;;;;;10.73;5.30;;;;;;;20.10;55.71;99483.44;4218876;28;23517;-77
2023/06/27 00:31:29;;;;;;;12.67;5.30;;;;;;;20.06;56.31;99506.94;4238390;28;21603;-74
2023/06/27 00:33:55;;;;;;;14.40;5.47;;;;;;;19.94;56.86;99499.50;4238778;28;20243;-72
2023/06/27 00:36:22;;;;;;;9.37;5.60;;;;;;;19.88;57.42;99481.22;4242809;28;21665;-76
2023/06/27 00:38:49;;;;;;;8.13;5.37;;;;;;;19.88;58.03;99483.09;4240384;28;21620;-73
2023/06/27 00:41:15;;;;;;;8.50;5.37;;;;;;;19.63;59.20;99493.09;4234825;28;20247;-73
2023/06/27 00:43:42;;;;;;;8.67;5.67;;;;;;;19.73;59.04;99499.97;4233413;28;20235;-72
2023/06/27 00:46:10;;;;;;;13.70;5.87;;;;;;;19.62;59.46;99487.84;4239021;28;21078;-75
2023/06/27 00:48:37;;;;;;;15.87;5.20;;;;;;;19.47;60.33;99489.09;4233120;28;20396;-72
2023/06/27 00:51:06;;;;;;;6.73;4.60;;;;;;;19.47;60.57;99493.72;4227262;28;20234;-74
2023/06/27 00:53:33;;;;;;;10.37;5.17;;;;;;;19.26;61.61;99492.28;4225103;28;20234;-74
2023/06/27 00:55:59;;;;;;;8.53;4.80;;;;;;;19.34;61.39;99485.66;4212810;28;20228;-75
2023/06/27 00:58:26;;;;;;;8.90;5.00;;;;;;;19.18;62.21;99503.56;4227285;28;20343;-74
2023/06/27 01:00:52;;;;;;;9.90;5.53;;;;;;;19.07;62.93;99497.75;4239769;28;21426;-71
2023/06/27 01:03:20;;;;;;;11.67;5.53;;;;;;;19.05;63.19;99490.81;4243314;28;20396;-71
2023/06/27 01:05:48;;;;;;;11.03;4.80;;;;;;;19.00;63.73;99497.81;4233272;28;20236;-70
2023/06/27 01:08:29;;;;;;;15.53;5.33;;;;;;;19.05;64.20;99499.88;4233049;28;20446;-74
2023/06/27 01:11:08;;;;;;;11.63;5.73;;;;;;;19.07;64.51;99497.75;4226495;28;20230;-71
2023/06/27 01:13:41;;;;;;;13.13;5.70;;;;;;;18.92;65.70;99497.28;4223602;28;20234;-74
2023/06/27 01:16:10;;;;;;;9.27;4.73;;;;;;;18.76;66.94;99509.63;4225923;28;20304;-73
2023/06/27 01:18:40;;;;;;;7.70;4.47;;;;;;;18.64;67.79;99504.84;4219283;28;20334;-73
2023/06/27 01:21:09;;;;;;;10.97;4.60;;;;;;;18.68;67.95;99505.25;4215149;28;20371;-74
2023/06/27 01:24:06;;;;;;;10.30;5.13;;;;;;;18.58;68.75;99500.28;4233070;28;21780;-72
2023/06/27 01:26:32;;;;;;;11.70;5.03;;;;;;;18.62;68.99;99489.69;4234362;28;20246;-73
2023/06/27 01:28:59;;;;;;;7.93;4.83;;;;;;;18.46;69.78;99482.88;4234166;28;20234;-72
2023/06/27 01:31:46;;;;;;;7.93;5.27;;;;;;;18.41;71.08;99483.53;4231003;28;23808;-74
2023/06/27 01:34:26;;;;;;;15.00;5.13;;;;;;;18.34;72.34;99489.06;4226924;28;21100;-75
2023/06/27 01:37:23;;;;;;;9.83;5.40;;;;;;;18.24;73.46;99494.19;4232327;28;20250;-75
2023/06/27 01:40:02;;;;;;;10.70;6.27;;;;;;;18.05;75.25;99485.06;4226566;28;20235;-72
2023/06/27 01:42:36;;;;;;;13.20;5.97;;;;;;;17.96;75.80;99489.94;4224709;28;20237;-73
2023/06/27 01:45:07;;;;;;;12.13;5.63;;;;;;;17.87;76.52;99492.06;4236813;28;20227;-71
2023/06/27 01:47:36;;;;;;;9.37;5.47;;;;;;;17.87;76.80;99488.47;4240554;28;20234;-73
2023/06/27 01:50:03;;;;;;;9.43;6.10;;;;;;;17.87;76.95;99485.75;4221674;28;20235;-73
2023/06/27 01:52:30;;;;;;;11.77;5.50;;;;;;;17.90;76.89;99491.63;4236472;28;20314;-73
2023/06/27 01:54:59;;;;;;;11.07;6.10;;;;;;;17.83;77.76;99492.72;4241455;28;20227;-75
2023/06/27 01:57:26;;;;;;;9.90;5.53;;;;;;;17.89;77.48;99487.22;4230533;28;21065;-74
2023/06/27 01:59:53;;;;;;;11.97;5.97;;;;;;;17.74;78.36;99494.88;4232309;28;20804;-74
2023/06/27 02:02:19;;;;;;;10.67;5.87;;;;;;;17.82;77.99;99499.25;4241239;28;20243;-72
2023/06/27 02:04:46;;;;;;;9.57;6.20;;;;;;;17.81;78.45;99486.63;4229561;28;21777;-74
2023/06/27 02:07:13;;;;;;;10.17;5.53;;;;;;;17.68;79.34;99493.84;4230597;28;24845;-71
2023/06/27 02:09:40;;;;;;;12.57;6.43;;;;;;;17.53;79.99;99485.06;4250482;28;20230;-77
2023/06/27 02:12:09;;;;;;;9.23;5.60;;;;;;;17.45;80.70;99480.66;4193794;28;20285;-73
2023/06/27 02:14:36;;;;;;;13.10;6.90;;;;;;;17.45;81.15;99480.66;4223554;28;20231;-71
2023/06/27 02:17:03;;;;;;;15.00;6.27;;;;;;;17.48;81.09;99472.03;4219941;28;21539;-75
2023/06/27 02:19:30;;;;;;;11.27;6.37;;;;;;;17.46;81.18;99465.94;4244465;28;21928;-75
2023/06/27 02:21:57;;;;;;;11.33;6.70;;;;;;;17.49;81.68;99481.06;4225441;28;20534;-71
2023/06/27 02:24:23;;;;;;;14.90;7.10;;;;;;;17.39;82.50;99473.31;4226121;28;20505;-74
2023/06/27 02:26:50;;;;;;;10.53;6.60;;;;;;;17.51;82.34;99498.13;4222356;28;20252;-73
2023/06/27 02:29:16;;;;;;;10.93;6.43;;;;;;;17.51;82.76;99488.03;4244328;28;21049;-73
2023/06/27 02:31:43;;;;;;;11.27;6.60;;;;;;;17.25;84.79;99483.50;4216175;28;20228;-72
2023/06/27 02:34:10;;;;;;;10.90;7.13;;;;;;;17.13;85.52;99482.44;4234868;28;23614;-75
2023/06/27 02:36:36;;;;;;;16.13;7.13;;;;;;;17.10;86.01;99472.78;4227718;28;20241;-72
2023/06/27 02:39:03;;;;;;;14.23;8.27;;;;;;;17.13;86.13;99460.56;4236854;28;20243;-74
2023/06/27 02:41:29;;;;;;;16.40;8.00;;;;;;;17.03;87.25;99469.22;4219990;28;20246;-73
2023/06/27 02:43:56;;;;;;;12.13;7.80;;;;;;;17.09;87.06;99460.16;4238832;28;23166;-72
2023/06/27 02:46:23;;;;;;;17.47;8.50;;;;;;;17.06;87.13;99442.28;4240352;28;20235;-74
2023/06/27 02:48:49;;;;;;;12.93;8.40;;;;;;;17.05;87.19;99434.31;4239912;28;20351;-73
2023/06/27 02:51:16;;;;;;;13.27;8.67;;;;;;;17.04;88.02;99438.09;4236820;28;20318;-75
2023/06/27 02:53:42;;;;;;;16.03;8.93;;;;;;;16.99;88.53;99436.00;4234894;28;20313;-73
2023/06/27 02:56:10;;;;;;;14.93;8.87;;;;;;;16.97;89.14;99426.34;4231462;28;20814;-77
2023/06/27 02:58:38;;;;;;;17.03;8.93;;;;;;;17.02;89.05;99429.25;4238552;28;20235;-74
2023/06/27 03:01:06;;;;;;;14.53;8.27;;;;;;;17.15;88.71;99440.16;4231079;28;20345;-70
2023/06/27 03:03:33;;;;;;;17.17;8.77;;;;;;;17.11;88.73;99425.25;4220960;28;20267;-73
2023/06/27 03:06:03;;;;;;;15.57;9.60;;;;;;;17.00;89.66;99418.56;4231164;28;22312;-75
2023/06/27 03:08:30;;;;;;;15.93;9.37;;;;;;;16.99;89.74;99407.84;4246222;28;20235;-71
2023/06/27 03:10:57;;;;;;;14.60;8.73;;;;;;;16.99;90.03;99411.41;4232686;28;22380;-74
2023/06/27 03:13:23;;;;;;;15.53;9.40;;;;;;;16.90;91.00;99410.78;4228682;28;20313;-72
2023/06/27 03:15:50;;;;;;;14.37;8.93;;;;;;;17.00;90.80;99402.16;4226601;28;20235;-71
2023/06/27 03:18:16;;;;;;;16.13;9.33;;;;;;;17.05;90.28;99401.50;4231809;28;21122;-76
2023/06/27 03:20:43;;;;;;;16.27;8.70;;;;;;;17.15;89.66;99403.78;4215593;28;20314;-74
2023/06/27 03:23:10;;;;;;;14.43;8.50;;;;;;;17.20;89.26;99417.63;4227239;28;20312;-74
2023/06/27 03:25:37;;;;;;;14.60;9.47;;;;;;;17.22;89.06;99418.28;4208160;28;25712;-75
2023/06/27 03:28:04;;;;;;;18.33;10.10;;;;;;;17.04;91.35;99422.53;4237972;28;20222;-72
2023/06/27 03:30:30;;;;;;;22.50;10.07;;;;;;;16.87;92.09;99415.84;4240046;28;20802;-74
2023/06/27 03:32:57;;;;;;;18.53;9.70;;;;;;;16.91;92.31;99415.19;4243846;28;20902;-72
2023/06/27 03:35:24;;;;;;;16.33;10.13;;;;;;;17.12;91.49;99426.94;4276290;28;22440;-72
2023/06/27 03:37:51;;;;;;;18.90;10.67;;;;;;;16.95;92.75;99421.94;4239098;28;20252;-73
2023/06/27 03:40:18;;;;;;;16.23;10.80;;;;;;;16.93;92.79;99418.56;4272774;28;20334;-73
2023/06/27 03:42:44;;;;;;;13.50;8.90;;;;;;;17.09;92.09;99427.34;4260173;28;20231;-73
2023/06/27 03:45:11;;;;;;;19.87;10.53;;;;;;;17.08;91.45;99412.00;4307551;28;20236;-77
2023/06/27 03:47:38;;;;;;;19.33;11.00;;;;;;;16.94;92.55;99425.72;4292071;28;22176;-76
2023/06/27 03:50:05;;;;;;;19.93;10.80;;;;;;;17.04;92.53;99432.63;4305392;28;20255;-76
2023/06/27 03:52:32;;;;;;;18.93;10.47;;;;;;;17.00;93.07;99445.91;4331516;28;21087;-74
2023/06/27 03:54:59;;;;;;;21.93;11.90;;;;;;;17.02;93.60;99440.19;4296421;28;20601;-76
2023/06/27 03:57:25;;;;;;;16.33;10.77;;;;;;;16.93;93.48;99447.81;4314245;28;20237;-73
2023/06/27 03:59:52;;;;;;;15.97;10.67;;;;;;;16.91;94.15;99450.72;4297358;28;21748;-74
2023/06/27 04:02:19;;;;;;;20.50;12.40;;;;;;;16.92;94.31;99457.03;4240887;28;20228;-73
2023/06/27 04:04:46;;;;;;;19.13;11.30;;;;;;;16.92;94.01;99449.69;4288389;28;20226;-73
2023/06/27 04:07:14;;;;;;;18.63;12.00;;;;;;;16.85;94.33;99459.75;4280728;28;21834;-75
2023/06/27 04:09:41;;;;;;;19.53;11.50;;;;;;;16.82;94.36;99467.53;4260434;28;21180;-78
2023/06/27 04:12:08;;;;;;;15.83;10.80;;;;;;;16.97;94.11;99459.16;4268597;28;20522;-70
2023/06/27 04:14:37;;;;;;;20.70;11.73;;;;;;;16.92;94.06;99459.75;4249771;28;20293;-72
2023/06/27 04:17:04;;;;;;;17.43;10.77;;;;;;;16.92;94.12;99463.34;4293273;28;22360;-75
2023/06/27 04:19:31;;;;;;;19.73;11.77;;;;;;;17.01;93.65;99460.38;4248338;28;20244;-75
2023/06/27 04:21:58;;;;;;;21.33;12.00;;;;;;;17.04;93.18;99459.97;4267737;28;21881;-71
2023/06/27 04:24:24;;;;;;;20.47;11.97;;;;;;;16.98;94.02;99455.38;4291583;28;23601;-72
2023/06/27 04:26:51;;;;;;;22.67;12.03;;;;;;;17.04;94.62;99471.75;4249396;28;20333;-73
2023/06/27 04:29:18;;;;;;;20.60;12.37;;;;;;;17.09;94.82;99465.63;4269781;28;20310;-77
2023/06/27 04:31:47;;;;;;;20.00;12.37;;;;;;;17.19;94.28;99463.31;4252043;28;20227;-77
2023/06/27 04:34:14;;;;;;;20.57;12.13;;;;;;;17.26;94.21;99460.53;4314253;28;20241;-74
2023/06/27 04:36:41;;;;;;;20.53;12.57;;;;;;;17.17;93.91;99461.84;4255727;28;20240;-76
2023/06/27 04:39:10;;;;;;;22.33;12.47;;;;;;;17.23;93.38;99461.81;4248547;28;21722;-71
2023/06/27 04:41:38;;;;;;;17.83;11.30;;;;;;;17.14;93.96;99443.13;4262807;28;21683;-71
2023/06/27 04:44:05;;;;;;;19.93;12.47;;;;;;;17.19;94.28;99449.63;4288793;28;20319;-77
2023/06/27 04:46:32;;;;;;;21.27;12.13;;;;;;;17.18;94.36;99437.00;4266530;28;20231;-72
2023/06/27 04:48:59;;;;;;;18.73;12.20;;;;;;;17.19;94.53;99440.56;4270741;28;20223;-77
2023/06/27 04:51:26;;;;;;;18.03;11.43;;;;;;;17.33;94.05;99439.50;4236284;28;20225;-72
2023/06/27 04:53:53;;;;;;;18.80;11.53;;;;;;;17.31;93.81;99425.19;4262955;28;20305;-76
2023/06/27 04:56:20;;;;;;;21.37;11.80;;;;;;;17.29;94.36;99427.28;4299211;28;20238;-75
2023/06/27 04:58:47;;;;;;;20.73;11.13;;;;;;;17.33;94.21;99427.69;4242559;28;20776;-74
2023/06/27 05:01:14;;;;;;;19.73;11.83;;;;;;;17.37;94.14;99421.56;4268577;28;20638;-72
2023/06/27 05:03:41;;;;;;;18.33;11.60;;;;;;;17.37;93.76;99420.75;4224891;28;20244;-74
2023/06/27 05:06:08;;;;;;;17.67;11.60;;;;;;;17.29;93.84;99416.34;4234986;28;23174;-75
2023/06/27 05:08:37;;;;;;;16.83;11.47;;;;;;;17.31;94.59;99421.59;4281499;28;21741;-75
2023/06/27 05:11:04;;;;;;;18.90;11.87;;;;;;;17.29;95.04;99410.88;4259919;28;22486;-73
2023/06/27 05:13:31;;;;;;;19.37;11.53;;;;;;;17.34;94.94;99415.69;4295597;28;20654;-74
2023/06/27 05:15:58;;;;;;;20.63;12.60;;;;;;;17.37;94.68;99407.06;4279825;28;20661;-74
2023/06/27 05:18:26;;;;;;;18.47;12.60;;;;;;;17.30;95.74;99407.09;4261877;28;21795;-71
2023/06/27 05:20:53;;;;;;;17.70;12.30;;;;;;;17.31;95.58;99397.81;4279385;28;20247;-72
2023/06/27 05:23:21;;;;;;;19.17;13.77;;;;;;;17.37;95.68;99401.59;4257506;28;20255;-75
2023/06/27 05:25:48;;;;;;;21.93;14.60;;;;;;;17.24;96.87;99406.06;4287818;28;20314;-72
2023/06/27 05:28:15;;;;;;;26.23;13.57;;;;;;;17.19;97.88;99407.75;4262212;28;25457;-72
2023/06/27 05:30:42;;;;;;;24.20;13.83;;;;;;;17.09;98.80;99406.34;4285730;28;20231;-73
2023/06/27 05:33:13;;;;;;;26.37;14.80;;;;;;;17.13;99.17;99411.34;4242699;28;20239;-79
2023/06/27 05:35:40;;;;;;;28.10;14.97;;;;;;;17.16;99.20;99414.50;4233451;28;20243;-66
2023/06/27 05:38:07;;;;;;;20.80;13.17;;;;;;;17.05;99.69;99413.28;4233990;28;20286;-68
2023/06/27 05:40:33;;;;;;;21.33;14.20;;;;;;;17.02;100.00;99423.78;4248077;28;20327;-72
2023/06/27 05:43:00;;;;;;;24.80;15.13;;;;;;;17.09;100.00;99424.63;4228052;28;20247;-69
2023/06/27 05:45:27;;;;;;;28.20;14.90;;;;;;;17.14;100.00;99438.50;4252303;28;20231;-70
2023/06/27 05:47:54;;;;;;;19.77;13.77;;;;;;;17.21;100.00;99443.94;4242613;28;22753;-66
2023/06/27 05:50:20;;;;;;;22.70;14.07;;;;;;;17.24;99.68;99449.81;4246452;28;26403;-69
2023/06/27 05:52:47;;;;;;;12.27;8.07;;;;;;;17.05;97.43;99445.25;4252083;28;21190;-68
2023/06/27 05:55:14;;;;;;;10.07;5.37;;;;;;;16.63;93.90;99459.16;4228453;28;21868;-69
2023/06/27 05:57:40;;;;;;;7.13;4.33;;;;;;;16.46;93.15;99453.31;4228727;28;20227;-70
2023/06/27 06:00:10;;;;;;;7.83;3.97;;;;;;;16.38;93.12;99464.44;4230185;28;20894;-67
2023/06/27 06:02:38;;;;;;;14.30;4.03;;;;;;;16.23;93.33;99468.19;4220014;28;20229;-66
2023/06/27 06:05:07;;;;;;;7.30;4.07;;;;;;;16.04;94.68;99466.25;4229803;28;22862;-68
2023/06/27 06:07:33;;;;;;;5.60;3.63;;;;;;;15.95;94.61;99466.47;4212003;28;20242;-72
2023/06/27 06:10:00;;;;;;;10.63;4.57;;;;;;;15.93;95.95;99471.31;4224778;28;20224;-69
2023/06/27 06:12:27;;;;;;;9.27;4.20;;;;;;;15.90;96.04;99477.16;4229965;28;20332;-72
2023/06/27 06:14:53;;;;;;;8.27;4.47;;;;;;;15.96;96.47;99487.25;4225511;28;20231;-70
2023/06/27 06:17:20;;;;;;;7.80;4.23;;;;;;;16.02;95.72;99477.41;4222136;28;20408;-72
2023/06/27 06:19:47;;;;;;;8.03;4.40;;;;;;;15.89;96.25;99488.28;4229429;28;21614;-71
2023/06/27 06:22:13;;;;;;;7.43;4.20;;;;;;;15.83;96.15;99488.03;4231368;28;20669;-71
2023/06/27 06:24:40;;;;;;;7.30;4.47;;;;;;;15.79;96.16;99496.81;4239174;28;20235;-71
2023/06/27 06:27:07;;;;;;;13.97;5.23;;;;;;;15.71;96.54;99486.94;4231193;28;20230;-69
2023/06/27 06:29:34;;;;;;;10.77;5.47;;;;;;;15.64;97.15;99497.81;4232696;28;25179;-75
2023/06/27 06:32:00;;;;;;;10.63;5.60;;;;;;;15.73;96.89;99503.97;4233620;28;20332;-71
2023/06/27 06:34:27;;;;;;;8.87;6.23;;;;;;;15.78;96.63;99509.63;4240680;28;21781;-72
2023/06/27 06:36:53;;;;;;;14.07;6.50;;;;;;;15.81;96.80;99503.78;4230385;28;23756;-71
2023/06/27 06:39:20;;;;;;;14.73;7.20;;;;;;;15.98;96.51;99506.13;4223644;28;20291;-74
2023/06/27 06:41:47;;;;;;;16.67;7.83;;;;;;;16.01;96.40;99503.00;4226015;28;20228;-73
2023/06/27 06:44:13;;;;;;;13.67;7.17;;;;;;;15.98;95.75;99507.00;4214942;28;21675;-72
2023/06/27 06:46:41;;;;;;;14.87;7.67;;;;;;;16.10;95.86;99511.84;4232572;28;20231;-75
2023/06/27 06:49:08;;;;;;;14.57;7.37;;;;;;;16.21;95.48;99502.19;4240384;28;20303;-73
2023/06/27 06:51:35;;;;;;;12.87;7.43;;;;;;;16.35;94.15;99517.59;4229654;28;21935;-73
2023/06/27 06:54:02;;;;;;;12.83;6.93;;;;;;;16.51;93.75;99516.34;4230775;28;20310;-70
2023/06/27 06:56:29;;;;;;;14.07;7.00;;;;;;;16.66;92.20;99515.28;4235516;28;20239;-71
2023/06/27 06:58:55;;;;;;;13.73;5.77;;;;;;;16.83;90.98;99518.44;4233384;28;20235;-73
2023/06/27 07:01:22;;;;;;;14.93;6.00;;;;;;;16.78;91.11;99522.66;4234116;28;20235;-71
2023/06/27 07:03:49;;;;;;;13.37;5.33;;;;;;;16.98;89.89;99515.50;4277900;28;20320;-71
2023/06/27 07:06:16;;;;;;;18.20;6.20;;;;;;;17.09;90.31;99514.84;4268757;28;20231;-75
2023/06/27 07:08:43;;;;;;;14.50;5.43;;;;;;;17.29;87.59;99517.56;4298710;28;20240;-75
2023/06/27 07:11:11;;;;;;;11.13;4.70;;;;;;;17.48;85.08;99512.25;4245089;28;20290;-68
2023/06/27 07:13:37;;;;;;;9.43;4.20;;;;;;;17.47;85.63;99513.31;4235887;28;21444;-72
2023/06/27 07:16:05;;;;;;;9.30;4.47;;;;;;;17.48;83.55;99509.50;4250380;28;20687;-71
2023/06/27 07:18:32;;;;;;;11.67;4.67;;;;;;;18.58;80.75;99510.41;4273262;28;21377;-72
2023/06/27 07:20:59;;;;;;;16.97;3.87;;;;;;;19.10;78.15;99529.38;4244162;28;20246;-72
2023/06/27 07:23:26;;;;;;;10.83;3.70;;;;;;;18.96;77.53;99524.03;4290943;28;20227;-73
2023/06/27 07:25:53;;;;;;;7.87;3.23;;;;;;;19.07;76.09;99519.69;4298131;28;25142;-71
2023/06/27 07:28:20;;;;;;;6.33;3.10;;;;;;;19.09;76.52;99519.47;4256957;28;20253;-73
2023/06/27 07:30:47;;;;;;;6.07;3.53;;;;;;;19.11;74.98;99529.13;4237646;28;20299;-72
2023/06/27 07:33:14;;;;;;;11.13;2.90;;;;;;;19.73;72.28;99528.25;4256742;28;25521;-71
2023/06/27 07:35:44;;;;;;;9.63;3.33;;;;;;;20.04;70.51;99512.66;4244172;28;20388;-71
2023/06/27 07:38:10;;;;;;;7.70;2.77;;;;;;;20.00;69.42;99527.09;4236006;28;20231;-70
2023/06/27 07:40:37;;;;;;;5.53;3.20;;;;;;;19.90;71.85;99513.94;4236782;28;22494;-67
2023/06/27 07:43:04;;;;;;;12.30;3.20;;;;;;;20.47;68.43;99505.28;4258318;28;21950;-69
2023/06/27 07:45:31;;;;;;;7.07;3.30;;;;;;;20.38;69.11;99512.19;4249016;28;20291;-71
2023/06/27 07:47:59;;;;;;;8.87;3.43;;;;;;;20.11;68.93;99516.16;4234358;28;20332;-66
2023/06/27 07:50:26;;;;;;;9.03;3.90;;;;;;;19.85;71.38;99516.53;4239184;28;20252;-67
2023/06/27 07:52:53;;;;;;;7.47;3.57;;;;;;;19.40;72.85;99525.91;4230704;28;20661;-66
2023/06/27 07:55:19;;;;;;;9.67;3.93;;;;;;;19.62;72.70;99523.56;4248803;28;20234;-68
2023/06/27 07:57:46;;;;;;;11.27;4.10;;;;;;;19.58;72.14;99519.56;4236794;28;20261;-68
2023/06/27 08:00:13;;;;;;;10.90;3.73;;;;;;;19.78;72.37;99524.81;4243147;28;24810;-67
2023/06/27 08:02:40;;;;;;;18.00;4.03;;;;;;;19.59;70.75;99522.09;4240004;28;20319;-69
2023/06/27 08:05:07;;;;;;;7.57;3.30;;;;;;;20.24;67.92;99528.06;4235242;28;20245;-71
2023/06/27 08:07:36;;;;;;;8.53;3.13;;;;;;;;;;4250912;28;20238;-69
2023/06/27 08:10:04;;;;;;;13.27;3.57;;;;;;;20.66;67.39;99521.69;4257061;28;20242;-45
2023/06/27 08:12:30;;;;;;;8.53;3.10;;;;;;;20.67;66.66;99524.22;4234341;28;20263;-48
2023/06/27 08:14:57;;;;;;;10.73;3.00;;;;;;;20.05;67.56;99522.59;4231227;28;21258;-45
2023/06/27 08:17:24;;;;;;;6.30;2.70;;;;;;;20.35;65.08;99513.50;4260065;28;20501;-45
2023/06/27 08:19:50;;;;;;;9.97;3.13;;;;;;;20.76;65.26;99523.91;4252290;28;20231;-49
2023/06/27 08:22:17;;;;;;;17.80;3.00;;;;;;;20.48;64.59;99514.34;4250196;28;20621;-70
2023/06/27 08:24:44;;;;;;;10.97;2.37;;;;;;;20.69;61.83;99519.31;4247868;28;22417;-75
2023/06/27 08:27:11;;;;;;;6.03;2.00;;;;;;;20.52;61.37;99510.91;4236426;28;20240;-73
2023/06/27 08:29:40;;;;;;;8.80;2.30;;;;;;;20.31;60.86;99542.53;4263830;28;20242;-68
2023/06/27 08:32:06;;;;;;;6.67;2.80;;;;;;;20.00;63.48;99541.69;4253799;28;20245;-72
2023/06/27 08:34:38;;;;;;;7.10;3.00;;;;;;;20.05;63.28;99535.50;4247852;28;20342;-76
2023/06/27 08:37:05;;;;;;;5.40;2.27;;;;;;;20.69;62.84;99540.47;4244370;28;20409;-69
2023/06/27 08:39:32;;;;;;;6.27;2.20;;;;;;;20.45;61.57;99545.09;4250195;28;20997;-75
2023/06/27 08:41:58;;;;;;;8.93;2.13;;;;;;;20.83;60.66;99535.63;4233536;28;20636;-75
2023/06/27 08:44:25;;;;;;;9.73;2.20;;;;;;;20.61;59.38;99549.06;4261754;28;21206;-66
2023/06/27 08:46:53;;;;;;;5.13;2.10;;;;;;;20.44;60.39;99552.47;4250386;28;22106;-45
2023/06/27 08:49:22;;;;;;;6.30;1.87;;;;;;;20.31;58.26;99555.44;4251921;28;20241;-69
2023/06/27 08:51:50;;;;;;;12.93;2.50;;;;;;;20.46;60.42;99546.75;4235450;28;21328;-52
2023/06/27 08:54:24;;;;;;;10.13;2.17;;;;;;;20.77;58.77;99556.66;4237204;28;20239;-69
2023/06/27 08:56:51;;;;;;;5.90;1.83;;;;;;;20.79;58.73;99571.03;4222718;28;20234;-71
2023/06/27 08:59:19;;;;;;;9.87;1.90;;;;;;;20.45;57.07;99564.31;4243973;28;20230;-71
2023/06/27 09:01:47;;;;;;;9.70;1.90;;;;;;;20.02;56.73;99568.94;4238580;28;20293;-69
2023/06/27 09:04:15;;;;;;;9.10;1.83;;;;;;;20.03;58.52;99570.59;4230203;28;23161;-68
2023/06/27 09:06:42;;;;;;;10.13;2.00;;;;;;;;;;4244675;28;22289;-74
2023/06/27 09:09:11;;;;;;;10.20;2.30;;;;;;;20.49;56.05;99573.75;4261265;28;21169;-74
2023/06/27 09:11:38;;;;;;;5.20;1.87;;;;;;;20.84;55.49;99568.41;4243561;28;20242;-70
2023/06/27 09:14:05;;;;;;;7.10;1.83;;;;;;;20.95;55.20;99580.50;4239500;28;21107;-69
2023/06/27 09:16:32;;;;;;;9.80;2.40;;;;;;;21.19;56.23;99566.75;4253365;28;20456;-68
2023/06/27 09:18:59;;;;;;;9.40;2.10;;;;;;;21.72;54.53;99575.94;4268019;28;20305;-70
2023/06/27 09:21:26;;;;;;;5.63;2.07;;;;;;;21.20;54.74;99568.44;4235718;28;20236;-68
2023/06/27 09:23:57;;;;;;;6.47;1.70;;;;;;;20.96;54.90;99567.59;4238916;28;20333;-68
2023/06/27 09:26:27;;;;;;;8.80;1.73;;;;;;;21.04;55.50;99568.06;4246336;28;21204;-67
2023/06/27 09:28:53;;;;;;;5.93;1.60;;;;;;;21.10;53.48;99560.78;4225760;28;20233;-70
2023/06/27 09:31:21;;;;;;;6.47;1.57;;;;;;;20.92;55.23;99567.22;4232331;28;20301;-72
2023/06/27 09:33:48;;;;;;;14.40;2.10;;;;;;;20.65;57.13;99558.53;4228866;28;20238;-67
2023/06/27 09:36:31;;;;;;;9.00;1.93;;;;;;;19.88;59.02;99574.59;4232357;28;20301;-69
2023/06/27 09:39:05;;;;;;;6.50;1.80;;;;;;;19.66;57.42;99582.41;4245407;28;21173;-70
2023/06/27 09:41:48;;;;;;;4.40;1.33;;;;;;;20.14;53.21;99574.47;4263084;28;20239;-68
2023/06/27 09:44:22;;;;;;;8.43;2.13;;;;;;;20.46;53.12;99575.09;4252521;28;21623;-68
2023/06/27 09:46:51;;;;;;;6.07;1.60;;;;;;;20.90;51.79;99583.94;4255433;28;21012;-74
2023/06/27 09:49:20;;;;;;;5.60;1.80;;;;;;;21.14;51.69;99578.47;4252647;28;20257;-72
2023/06/27 09:51:51;;;;;;;9.77;1.90;;;;;;;20.93;51.38;99562.53;4239247;28;20360;-69
2023/06/27 09:54:20;;;;;;;4.90;1.70;;;;;;;21.17;51.92;99561.50;4233913;28;21965;-68
2023/06/27 09:56:51;;;;;;;8.43;1.67;;;;;;;21.26;49.95;99574.91;4241846;28;20330;-70
2023/06/27 09:59:22;;;;;;;4.97;1.43;;;;;;;21.28;46.88;99580.97;4230659;28;20279;-71
2023/06/27 10:01:52;;;;;;;11.20;1.53;;;;;;;21.37;48.03;99561.09;4214521;28;20253;-69
2023/06/27 10:04:20;;;;;;;7.70;1.60;;;;;;;21.20;50.43;99571.19;4242770;28;20491;-70
2023/06/27 10:07:07;;;;;;;6.00;1.47;;;;;;;21.15;48.56;99579.34;4235525;28;20275;-69
2023/06/27 10:09:37;;;;;;;8.40;1.60;;;;;;;21.14;47.68;99580.41;4227443;28;20935;-70
2023/06/27 10:12:05;;;;;;;9.90;1.70;;;;;;;21.23;47.63;99594.63;4204010;28;20237;-72
2023/06/27 10:14:32;;;;;;;5.97;1.37;;;;;;;21.25;46.75;99601.56;4218687;28;20240;-69
2023/06/27 10:17:01;;;;;;;9.07;1.70;;;;;;;21.41;46.50;99585.41;4211344;28;20232;-69
2023/06/27 10:19:31;;;;;;;5.13;1.33;;;;;;;21.26;45.37;99596.94;4196689;28;20376;-71
2023/06/27 10:22:01;;;;;;;4.87;1.30;;;;;;;20.84;48.72;99579.41;4200670;28;23080;-69
2023/06/27 10:24:29;;;;;;;3.70;1.40;;;;;;;21.03;47.80;99588.41;4211762;28;20327;-71
2023/06/27 10:26:56;;;;;;;6.80;1.70;;;;;;;21.14;46.29;99596.91;4197478;28;20244;-70
2023/06/27 10:29:31;;;;;;;6.13;1.60;;;;;;;21.30;46.98;99592.59;4210564;28;21723;-72
2023/06/27 10:31:57;;;;;;;11.40;1.63;;;;;;;21.26;48.06;99586.75;4206769;28;20237;-68
2023/06/27 10:34:24;;;;;;;5.03;1.30;;;;;;;20.99;47.97;99592.72;4209890;28;20236;-72
2023/06/27 10:36:54;;;;;;;8.67;1.80;;;;;;;21.38;47.13;99581.22;4199696;28;20259;-69
2023/06/27 10:39:34;;;;;;;8.33;1.53;;;;;;;21.65;46.58;99594.53;4221920;28;25469;-69
2023/06/27 10:42:26;;;;;;;8.03;1.97;;;;;;;21.47;46.72;99582.56;4205518;28;20244;-71
2023/06/27 10:44:56;;;;;;;8.07;1.30;;;;;;;21.68;47.82;99591.28;4193602;28;20241;-71
2023/06/27 10:47:23;;;;;;;7.07;1.40;;;;;;;21.99;46.37;99583.69;4216705;28;20294;-69
2023/06/27 10:49:53;;;;;;;14.93;1.47;;;;;;;21.71;44.29;99588.06;4218073;28;21823;-69
2023/06/27 10:52:24;;;;;;;9.77;1.70;;;;;;;21.61;43.97;99583.16;4189725;28;20447;-71
2023/06/27 10:55:18;;;;;;;6.97;1.33;;;;;;;21.74;46.00;99576.53;4215195;28;20241;-72
2023/06/27 10:57:48;;;;;;;8.60;1.63;;;;;;;22.04;44.63;99571.94;4220047;28;20521;-69
2023/06/27 11:00:30;;;;;;;11.83;1.60;;;;;;;21.86;44.42;99573.78;4199610;28;20229;-70
2023/06/27 11:02:57;;;;;;;8.73;1.57;;;;;;;21.98;44.45;99576.50;4197360;28;20248;-74
2023/06/27 11:05:47;;;;;;;4.53;1.43;;;;;;;22.23;45.34;99575.34;4199984;28;20238;-71
2023/06/27 11:08:17;;;;;;;5.60;1.47;;;;;;;21.99;43.34;99579.00;4219543;28;20239;-72
2023/06/27 11:10:52;;;;;;;9.10;1.83;;;;;;;21.92;44.45;99571.97;4232693;28;22012;-71
2023/06/27 11:13:21;;;;;;;11.40;2.13;;;;;;;21.81;47.90;99566.22;4243939;28;20268;-73
2023/06/27 11:15:50;;;;;;;6.80;1.77;;;;;;;21.78;47.42;99561.22;4229392;28;20231;-71
2023/06/27 11:18:18;;;;;;;9.70;1.70;;;;;;;21.41;47.44;99569.75;4231969;28;22167;-70
2023/06/27 11:20:45;;;;;;;11.70;1.40;;;;;;;21.50;47.74;99567.47;4231095;28;22014;-69
2023/06/27 11:23:13;;;;;;;8.70;1.77;;;;;;;20.89;49.07;99574.00;4230473;28;20237;-70
2023/06/27 11:25:45;;;;;;;10.40;1.90;;;;;;;20.90;50.21;99567.44;4222423;28;21655;-70
2023/06/27 11:28:13;;;;;;;6.40;1.73;;;;;;;21.23;49.57;99561.59;4243660;28;20281;-70
2023/06/27 11:30:39;;;;;;;8.23;1.87;;;;;;;21.33;48.22;99559.94;4254273;28;20624;-71
2023/06/27 11:33:07;;;;;;;9.27;1.77;;;;;;;21.26;47.59;99561.13;4232884;28;20407;-71